<?xml version="1.0" encoding="UTF-8" standalone="no" ?>
<gpx xmlns="http://www.topografix.com/GPX/1/1" xmlns:xsi="http://www.w3.org/2001/XMLSchema-instance" xsi:schemaLocation="http://www.topografix.com/GPX/1/1 http://www.topografix.com/GPX/1/1/gpx.xsd" version="1.1" creator="VisuGPX - https://www.visugpx.com">
  <metadata>
    <name>Mont de la Coche en traversée</name>
    <desc><![CDATA[Départ du parking de Nant Fourchu, montée aux chalets d'Orgeval.
Montée plein est pour rejoindre la combe suspendue de Banc Ferrand puis une seconde combe suspendue jusqu'à un col sous le Mont de la Coche.
Descente par le versant W en rejoignant le plan de la Limace puis Précherel où nous avions une autre voiture.]]></desc>
  </metadata>
  <trk>
    <name><![CDATA[Tracé actuel: 14 OCT 2017 08:49]]></name>
    <trkseg>
      <trkpt lat="45.64553" lon="6.23667">
        <ele>1000.87</ele>
        <time>2017-10-14T06:51:30Z</time>
      </trkpt>
      <trkpt lat="45.64554" lon="6.2367">
        <ele>1000.39</ele>
        <time>2017-10-14T06:54:27Z</time>
      </trkpt>
      <trkpt lat="45.64553" lon="6.23679">
        <ele>1002.31</ele>
        <time>2017-10-14T06:56:42Z</time>
      </trkpt>
      <trkpt lat="45.64555" lon="6.23673">
        <ele>1002.31</ele>
        <time>2017-10-14T07:00:30Z</time>
      </trkpt>
      <trkpt lat="45.64571" lon="6.23698">
        <ele>1002.31</ele>
        <time>2017-10-14T07:01:19Z</time>
      </trkpt>
      <trkpt lat="45.64591" lon="6.23719">
        <ele>1004.72</ele>
        <time>2017-10-14T07:01:46Z</time>
      </trkpt>
      <trkpt lat="45.64609" lon="6.23752">
        <ele>1009.04</ele>
        <time>2017-10-14T07:02:25Z</time>
      </trkpt>
      <trkpt lat="45.64625" lon="6.23787">
        <ele>1012.41</ele>
        <time>2017-10-14T07:02:53Z</time>
      </trkpt>
      <trkpt lat="45.64643" lon="6.23815">
        <ele>1015.77</ele>
        <time>2017-10-14T07:03:18Z</time>
      </trkpt>
      <trkpt lat="45.64668" lon="6.23837">
        <ele>1019.13</ele>
        <time>2017-10-14T07:03:46Z</time>
      </trkpt>
      <trkpt lat="45.6469" lon="6.23862">
        <ele>1022.98</ele>
        <time>2017-10-14T07:04:14Z</time>
      </trkpt>
      <trkpt lat="45.64712" lon="6.23896">
        <ele>1026.83</ele>
        <time>2017-10-14T07:04:44Z</time>
      </trkpt>
      <trkpt lat="45.64728" lon="6.23925">
        <ele>1030.19</ele>
        <time>2017-10-14T07:05:08Z</time>
      </trkpt>
      <trkpt lat="45.64746" lon="6.23964">
        <ele>1034.04</ele>
        <time>2017-10-14T07:05:37Z</time>
      </trkpt>
      <trkpt lat="45.64751" lon="6.24">
        <ele>1038.84</ele>
        <time>2017-10-14T07:06:07Z</time>
      </trkpt>
      <trkpt lat="45.64775" lon="6.24017">
        <ele>1046.53</ele>
        <time>2017-10-14T07:06:53Z</time>
      </trkpt>
      <trkpt lat="45.64795" lon="6.24038">
        <ele>1054.7</ele>
        <time>2017-10-14T07:07:40Z</time>
      </trkpt>
      <trkpt lat="45.64815" lon="6.24053">
        <ele>1066.72</ele>
        <time>2017-10-14T07:08:35Z</time>
      </trkpt>
      <trkpt lat="45.64841" lon="6.24057">
        <ele>1077.78</ele>
        <time>2017-10-14T07:09:29Z</time>
      </trkpt>
      <trkpt lat="45.64873" lon="6.24064">
        <ele>1088.83</ele>
        <time>2017-10-14T07:10:24Z</time>
      </trkpt>
      <trkpt lat="45.64896" lon="6.24074">
        <ele>1099.4</ele>
        <time>2017-10-14T07:11:16Z</time>
      </trkpt>
      <trkpt lat="45.64921" lon="6.24093">
        <ele>1107.58</ele>
        <time>2017-10-14T07:11:59Z</time>
      </trkpt>
      <trkpt lat="45.64944" lon="6.24102">
        <ele>1114.31</ele>
        <time>2017-10-14T07:12:36Z</time>
      </trkpt>
      <trkpt lat="45.64976" lon="6.24116">
        <ele>1119.11</ele>
        <time>2017-10-14T07:13:17Z</time>
      </trkpt>
      <trkpt lat="45.65004" lon="6.24119">
        <ele>1125.36</ele>
        <time>2017-10-14T07:13:55Z</time>
      </trkpt>
      <trkpt lat="45.65027" lon="6.24102">
        <ele>1129.69</ele>
        <time>2017-10-14T07:14:31Z</time>
      </trkpt>
      <trkpt lat="45.65048" lon="6.2411">
        <ele>1132.09</ele>
        <time>2017-10-14T07:14:56Z</time>
      </trkpt>
      <trkpt lat="45.6507" lon="6.24133">
        <ele>1134.49</ele>
        <time>2017-10-14T07:15:29Z</time>
      </trkpt>
      <trkpt lat="45.65089" lon="6.24158">
        <ele>1140.26</ele>
        <time>2017-10-14T07:16:03Z</time>
      </trkpt>
      <trkpt lat="45.65112" lon="6.24164">
        <ele>1147.47</ele>
        <time>2017-10-14T07:16:44Z</time>
      </trkpt>
      <trkpt lat="45.65136" lon="6.24151">
        <ele>1151.32</ele>
        <time>2017-10-14T07:17:11Z</time>
      </trkpt>
      <trkpt lat="45.6515" lon="6.24155">
        <ele>1154.68</ele>
        <time>2017-10-14T07:18:33Z</time>
      </trkpt>
      <trkpt lat="45.65172" lon="6.24149">
        <ele>1157.56</ele>
        <time>2017-10-14T07:19:09Z</time>
      </trkpt>
      <trkpt lat="45.65195" lon="6.2413">
        <ele>1160.93</ele>
        <time>2017-10-14T07:19:36Z</time>
      </trkpt>
      <trkpt lat="45.65221" lon="6.24113">
        <ele>1164.29</ele>
        <time>2017-10-14T07:20:14Z</time>
      </trkpt>
      <trkpt lat="45.65251" lon="6.24095">
        <ele>1169.58</ele>
        <time>2017-10-14T07:20:57Z</time>
      </trkpt>
      <trkpt lat="45.65271" lon="6.24077">
        <ele>1173.43</ele>
        <time>2017-10-14T07:21:22Z</time>
      </trkpt>
      <trkpt lat="45.65299" lon="6.24072">
        <ele>1180.64</ele>
        <time>2017-10-14T07:22:13Z</time>
      </trkpt>
      <trkpt lat="45.65321" lon="6.24072">
        <ele>1188.33</ele>
        <time>2017-10-14T07:23:06Z</time>
      </trkpt>
      <trkpt lat="45.65348" lon="6.24073">
        <ele>1195.06</ele>
        <time>2017-10-14T07:23:57Z</time>
      </trkpt>
      <trkpt lat="45.65375" lon="6.24075">
        <ele>1200.34</ele>
        <time>2017-10-14T07:24:36Z</time>
      </trkpt>
      <trkpt lat="45.65398" lon="6.24094">
        <ele>1207.55</ele>
        <time>2017-10-14T07:25:28Z</time>
      </trkpt>
      <trkpt lat="45.65425" lon="6.24095">
        <ele>1215.72</ele>
        <time>2017-10-14T07:26:20Z</time>
      </trkpt>
      <trkpt lat="45.65451" lon="6.24099">
        <ele>1223.9</ele>
        <time>2017-10-14T07:27:20Z</time>
      </trkpt>
      <trkpt lat="45.65473" lon="6.241">
        <ele>1231.59</ele>
        <time>2017-10-14T07:28:13Z</time>
      </trkpt>
      <trkpt lat="45.65494" lon="6.2408">
        <ele>1242.16</ele>
        <time>2017-10-14T07:29:18Z</time>
      </trkpt>
      <trkpt lat="45.65523" lon="6.24066">
        <ele>1248.89</ele>
        <time>2017-10-14T07:30:08Z</time>
      </trkpt>
      <trkpt lat="45.6555" lon="6.24044">
        <ele>1254.18</ele>
        <time>2017-10-14T07:30:53Z</time>
      </trkpt>
      <trkpt lat="45.65581" lon="6.24031">
        <ele>1258.02</ele>
        <time>2017-10-14T07:31:30Z</time>
      </trkpt>
      <trkpt lat="45.65605" lon="6.24034">
        <ele>1261.87</ele>
        <time>2017-10-14T07:32:07Z</time>
      </trkpt>
      <trkpt lat="45.65636" lon="6.24037">
        <ele>1266.19</ele>
        <time>2017-10-14T07:32:49Z</time>
      </trkpt>
      <trkpt lat="45.65666" lon="6.24037">
        <ele>1270.52</ele>
        <time>2017-10-14T07:33:29Z</time>
      </trkpt>
      <trkpt lat="45.65689" lon="6.24055">
        <ele>1276.29</ele>
        <time>2017-10-14T07:34:08Z</time>
      </trkpt>
      <trkpt lat="45.65715" lon="6.24066">
        <ele>1281.57</ele>
        <time>2017-10-14T07:35:00Z</time>
      </trkpt>
      <trkpt lat="45.65742" lon="6.24064">
        <ele>1286.38</ele>
        <time>2017-10-14T07:35:45Z</time>
      </trkpt>
      <trkpt lat="45.6577" lon="6.24071">
        <ele>1293.59</ele>
        <time>2017-10-14T07:36:35Z</time>
      </trkpt>
      <trkpt lat="45.65797" lon="6.24064">
        <ele>1300.8</ele>
        <time>2017-10-14T07:37:26Z</time>
      </trkpt>
      <trkpt lat="45.65821" lon="6.24065">
        <ele>1305.13</ele>
        <time>2017-10-14T07:38:01Z</time>
      </trkpt>
      <trkpt lat="45.65844" lon="6.24062">
        <ele>1310.41</ele>
        <time>2017-10-14T07:38:43Z</time>
      </trkpt>
      <trkpt lat="45.65873" lon="6.24062">
        <ele>1314.26</ele>
        <time>2017-10-14T07:39:24Z</time>
      </trkpt>
      <trkpt lat="45.65897" lon="6.24064">
        <ele>1318.1</ele>
        <time>2017-10-14T07:40:01Z</time>
      </trkpt>
      <trkpt lat="45.65929" lon="6.2408">
        <ele>1318.1</ele>
        <time>2017-10-14T07:40:41Z</time>
      </trkpt>
      <trkpt lat="45.65954" lon="6.24099">
        <ele>1322.43</ele>
        <time>2017-10-14T07:41:19Z</time>
      </trkpt>
      <trkpt lat="45.65974" lon="6.2412">
        <ele>1327.24</ele>
        <time>2017-10-14T07:42:01Z</time>
      </trkpt>
      <trkpt lat="45.65999" lon="6.24139">
        <ele>1328.2</ele>
        <time>2017-10-14T07:42:39Z</time>
      </trkpt>
      <trkpt lat="45.66029" lon="6.24154">
        <ele>1329.64</ele>
        <time>2017-10-14T07:43:20Z</time>
      </trkpt>
      <trkpt lat="45.66054" lon="6.24164">
        <ele>1329.64</ele>
        <time>2017-10-14T07:43:47Z</time>
      </trkpt>
      <trkpt lat="45.66079" lon="6.24173">
        <ele>1329.64</ele>
        <time>2017-10-14T07:44:18Z</time>
      </trkpt>
      <trkpt lat="45.66102" lon="6.2418">
        <ele>1328.2</ele>
        <time>2017-10-14T07:44:47Z</time>
      </trkpt>
      <trkpt lat="45.66131" lon="6.2419">
        <ele>1328.2</ele>
        <time>2017-10-14T07:45:19Z</time>
      </trkpt>
      <trkpt lat="45.66156" lon="6.24197">
        <ele>1330.12</ele>
        <time>2017-10-14T07:45:47Z</time>
      </trkpt>
      <trkpt lat="45.66159" lon="6.24203">
        <ele>1327.24</ele>
        <time>2017-10-14T07:50:09Z</time>
      </trkpt>
      <trkpt lat="45.66178" lon="6.24211">
        <ele>1330.12</ele>
        <time>2017-10-14T07:52:36Z</time>
      </trkpt>
      <trkpt lat="45.66209" lon="6.24229">
        <ele>1332.04</ele>
        <time>2017-10-14T07:53:16Z</time>
      </trkpt>
      <trkpt lat="45.66236" lon="6.24239">
        <ele>1333.49</ele>
        <time>2017-10-14T07:53:46Z</time>
      </trkpt>
      <trkpt lat="45.6626" lon="6.24243">
        <ele>1336.85</ele>
        <time>2017-10-14T07:54:16Z</time>
      </trkpt>
      <trkpt lat="45.66294" lon="6.24239">
        <ele>1342.62</ele>
        <time>2017-10-14T07:55:03Z</time>
      </trkpt>
      <trkpt lat="45.66324" lon="6.24236">
        <ele>1346.46</ele>
        <time>2017-10-14T07:55:46Z</time>
      </trkpt>
      <trkpt lat="45.66354" lon="6.24223">
        <ele>1351.27</ele>
        <time>2017-10-14T07:56:30Z</time>
      </trkpt>
      <trkpt lat="45.66385" lon="6.24206">
        <ele>1357.52</ele>
        <time>2017-10-14T07:57:32Z</time>
      </trkpt>
      <trkpt lat="45.6641" lon="6.24198">
        <ele>1361.84</ele>
        <time>2017-10-14T07:58:03Z</time>
      </trkpt>
      <trkpt lat="45.66437" lon="6.24194">
        <ele>1367.61</ele>
        <time>2017-10-14T07:58:46Z</time>
      </trkpt>
      <trkpt lat="45.66467" lon="6.24192">
        <ele>1372.42</ele>
        <time>2017-10-14T07:59:33Z</time>
      </trkpt>
      <trkpt lat="45.66501" lon="6.24186">
        <ele>1377.71</ele>
        <time>2017-10-14T08:00:21Z</time>
      </trkpt>
      <trkpt lat="45.66529" lon="6.24196">
        <ele>1383.47</ele>
        <time>2017-10-14T08:01:06Z</time>
      </trkpt>
      <trkpt lat="45.66557" lon="6.24199">
        <ele>1388.76</ele>
        <time>2017-10-14T08:01:49Z</time>
      </trkpt>
      <trkpt lat="45.66583" lon="6.24203">
        <ele>1391.65</ele>
        <time>2017-10-14T08:02:19Z</time>
      </trkpt>
      <trkpt lat="45.66614" lon="6.24221">
        <ele>1397.41</ele>
        <time>2017-10-14T08:03:04Z</time>
      </trkpt>
      <trkpt lat="45.6664" lon="6.24227">
        <ele>1403.18</ele>
        <time>2017-10-14T08:03:48Z</time>
      </trkpt>
      <trkpt lat="45.66665" lon="6.24204">
        <ele>1404.62</ele>
        <time>2017-10-14T08:04:34Z</time>
      </trkpt>
      <trkpt lat="45.66693" lon="6.24189">
        <ele>1409.91</ele>
        <time>2017-10-14T08:05:20Z</time>
      </trkpt>
      <trkpt lat="45.66715" lon="6.24179">
        <ele>1413.76</ele>
        <time>2017-10-14T08:05:51Z</time>
      </trkpt>
      <trkpt lat="45.66743" lon="6.24164">
        <ele>1419.52</ele>
        <time>2017-10-14T08:06:35Z</time>
      </trkpt>
      <trkpt lat="45.66759" lon="6.24136">
        <ele>1420.97</ele>
        <time>2017-10-14T08:07:05Z</time>
      </trkpt>
      <trkpt lat="45.66777" lon="6.24116">
        <ele>1421.93</ele>
        <time>2017-10-14T08:07:32Z</time>
      </trkpt>
      <trkpt lat="45.6679" lon="6.24088">
        <ele>1423.37</ele>
        <time>2017-10-14T08:07:59Z</time>
      </trkpt>
      <trkpt lat="45.66801" lon="6.24054">
        <ele>1425.29</ele>
        <time>2017-10-14T08:08:28Z</time>
      </trkpt>
      <trkpt lat="45.66822" lon="6.24062">
        <ele>1431.06</ele>
        <time>2017-10-14T08:09:16Z</time>
      </trkpt>
      <trkpt lat="45.66838" lon="6.24086">
        <ele>1435.87</ele>
        <time>2017-10-14T08:09:47Z</time>
      </trkpt>
      <trkpt lat="45.66864" lon="6.24091">
        <ele>1440.67</ele>
        <time>2017-10-14T08:10:28Z</time>
      </trkpt>
      <trkpt lat="45.6687" lon="6.2408">
        <ele>1442.11</ele>
        <time>2017-10-14T08:12:17Z</time>
      </trkpt>
      <trkpt lat="45.66887" lon="6.24064">
        <ele>1442.6</ele>
        <time>2017-10-14T08:13:13Z</time>
      </trkpt>
      <trkpt lat="45.66898" lon="6.24053">
        <ele>1443.08</ele>
        <time>2017-10-14T08:16:00Z</time>
      </trkpt>
      <trkpt lat="45.66929" lon="6.24057">
        <ele>1446.92</ele>
        <time>2017-10-14T08:16:44Z</time>
      </trkpt>
      <trkpt lat="45.66951" lon="6.24087">
        <ele>1450.77</ele>
        <time>2017-10-14T08:17:27Z</time>
      </trkpt>
      <trkpt lat="45.66976" lon="6.24109">
        <ele>1455.57</ele>
        <time>2017-10-14T08:18:11Z</time>
      </trkpt>
      <trkpt lat="45.67003" lon="6.24128">
        <ele>1460.38</ele>
        <time>2017-10-14T08:18:53Z</time>
      </trkpt>
      <trkpt lat="45.67015" lon="6.24116">
        <ele>1467.11</ele>
        <time>2017-10-14T08:19:51Z</time>
      </trkpt>
      <trkpt lat="45.67013" lon="6.24085">
        <ele>1470.95</ele>
        <time>2017-10-14T08:20:39Z</time>
      </trkpt>
      <trkpt lat="45.67041" lon="6.2409">
        <ele>1476.24</ele>
        <time>2017-10-14T08:21:21Z</time>
      </trkpt>
      <trkpt lat="45.67054" lon="6.24075">
        <ele>1480.09</ele>
        <time>2017-10-14T08:22:36Z</time>
      </trkpt>
      <trkpt lat="45.67056" lon="6.2407">
        <ele>1481.05</ele>
        <time>2017-10-14T08:26:36Z</time>
      </trkpt>
      <trkpt lat="45.6707" lon="6.24043">
        <ele>1484.41</ele>
        <time>2017-10-14T08:27:04Z</time>
      </trkpt>
      <trkpt lat="45.67085" lon="6.24002">
        <ele>1486.34</ele>
        <time>2017-10-14T08:27:44Z</time>
      </trkpt>
      <trkpt lat="45.67082" lon="6.23963">
        <ele>1488.26</ele>
        <time>2017-10-14T08:28:13Z</time>
      </trkpt>
      <trkpt lat="45.67098" lon="6.23912">
        <ele>1489.22</ele>
        <time>2017-10-14T08:28:45Z</time>
      </trkpt>
      <trkpt lat="45.67113" lon="6.23884">
        <ele>1491.14</ele>
        <time>2017-10-14T08:29:08Z</time>
      </trkpt>
      <trkpt lat="45.67146" lon="6.23877">
        <ele>1493.55</ele>
        <time>2017-10-14T08:29:38Z</time>
      </trkpt>
      <trkpt lat="45.67187" lon="6.23867">
        <ele>1495.95</ele>
        <time>2017-10-14T08:30:13Z</time>
      </trkpt>
      <trkpt lat="45.67211" lon="6.23857">
        <ele>1496.43</ele>
        <time>2017-10-14T08:30:34Z</time>
      </trkpt>
      <trkpt lat="45.67248" lon="6.23857">
        <ele>1501.72</ele>
        <time>2017-10-14T08:31:09Z</time>
      </trkpt>
      <trkpt lat="45.67279" lon="6.2385">
        <ele>1505.56</ele>
        <time>2017-10-14T08:31:51Z</time>
      </trkpt>
      <trkpt lat="45.67309" lon="6.23847">
        <ele>1507.97</ele>
        <time>2017-10-14T08:32:22Z</time>
      </trkpt>
      <trkpt lat="45.67336" lon="6.2385">
        <ele>1510.85</ele>
        <time>2017-10-14T08:32:48Z</time>
      </trkpt>
      <trkpt lat="45.6736" lon="6.23875">
        <ele>1511.81</ele>
        <time>2017-10-14T08:33:16Z</time>
      </trkpt>
      <trkpt lat="45.67387" lon="6.23892">
        <ele>1514.21</ele>
        <time>2017-10-14T08:33:45Z</time>
      </trkpt>
      <trkpt lat="45.6742" lon="6.239">
        <ele>1518.06</ele>
        <time>2017-10-14T08:34:19Z</time>
      </trkpt>
      <trkpt lat="45.67444" lon="6.23894">
        <ele>1519.5</ele>
        <time>2017-10-14T08:34:41Z</time>
      </trkpt>
      <trkpt lat="45.67468" lon="6.23896">
        <ele>1522.39</ele>
        <time>2017-10-14T08:35:09Z</time>
      </trkpt>
      <trkpt lat="45.67494" lon="6.23903">
        <ele>1524.79</ele>
        <time>2017-10-14T08:35:38Z</time>
      </trkpt>
      <trkpt lat="45.67517" lon="6.2393">
        <ele>1528.15</ele>
        <time>2017-10-14T08:36:09Z</time>
      </trkpt>
      <trkpt lat="45.67544" lon="6.23949">
        <ele>1532.48</ele>
        <time>2017-10-14T08:36:47Z</time>
      </trkpt>
      <trkpt lat="45.67568" lon="6.23949">
        <ele>1535.84</ele>
        <time>2017-10-14T08:37:14Z</time>
      </trkpt>
      <trkpt lat="45.67596" lon="6.23944">
        <ele>1538.73</ele>
        <time>2017-10-14T08:37:42Z</time>
      </trkpt>
      <trkpt lat="45.67619" lon="6.23954">
        <ele>1544.01</ele>
        <time>2017-10-14T08:38:16Z</time>
      </trkpt>
      <trkpt lat="45.67646" lon="6.2395">
        <ele>1548.82</ele>
        <time>2017-10-14T08:38:49Z</time>
      </trkpt>
      <trkpt lat="45.67677" lon="6.23958">
        <ele>1555.55</ele>
        <time>2017-10-14T08:39:32Z</time>
      </trkpt>
      <trkpt lat="45.67704" lon="6.23945">
        <ele>1560.84</ele>
        <time>2017-10-14T08:40:11Z</time>
      </trkpt>
      <trkpt lat="45.67728" lon="6.23941">
        <ele>1565.16</ele>
        <time>2017-10-14T08:40:40Z</time>
      </trkpt>
      <trkpt lat="45.67751" lon="6.23936">
        <ele>1568.53</ele>
        <time>2017-10-14T08:41:08Z</time>
      </trkpt>
      <trkpt lat="45.67787" lon="6.23929">
        <ele>1573.33</ele>
        <time>2017-10-14T08:41:53Z</time>
      </trkpt>
      <trkpt lat="45.67812" lon="6.23899">
        <ele>1580.06</ele>
        <time>2017-10-14T08:42:39Z</time>
      </trkpt>
      <trkpt lat="45.67831" lon="6.23881">
        <ele>1584.87</ele>
        <time>2017-10-14T08:43:11Z</time>
      </trkpt>
      <trkpt lat="45.67863" lon="6.23885">
        <ele>1591.6</ele>
        <time>2017-10-14T08:43:57Z</time>
      </trkpt>
      <trkpt lat="45.6789" lon="6.23881">
        <ele>1594</ele>
        <time>2017-10-14T08:44:37Z</time>
      </trkpt>
      <trkpt lat="45.67909" lon="6.23904">
        <ele>1596.89</ele>
        <time>2017-10-14T08:45:07Z</time>
      </trkpt>
      <trkpt lat="45.67926" lon="6.23932">
        <ele>1596.89</ele>
        <time>2017-10-14T08:45:39Z</time>
      </trkpt>
      <trkpt lat="45.67927" lon="6.23911">
        <ele>1599.29</ele>
        <time>2017-10-14T08:50:23Z</time>
      </trkpt>
      <trkpt lat="45.6795" lon="6.23887">
        <ele>1603.62</ele>
        <time>2017-10-14T08:51:27Z</time>
      </trkpt>
      <trkpt lat="45.67961" lon="6.23859">
        <ele>1606.5</ele>
        <time>2017-10-14T08:52:05Z</time>
      </trkpt>
      <trkpt lat="45.67964" lon="6.23825">
        <ele>1613.23</ele>
        <time>2017-10-14T08:52:47Z</time>
      </trkpt>
      <trkpt lat="45.67953" lon="6.23798">
        <ele>1620.44</ele>
        <time>2017-10-14T08:53:30Z</time>
      </trkpt>
      <trkpt lat="45.67944" lon="6.23765">
        <ele>1631.49</ele>
        <time>2017-10-14T08:54:32Z</time>
      </trkpt>
      <trkpt lat="45.67955" lon="6.23736">
        <ele>1644.47</ele>
        <time>2017-10-14T08:55:50Z</time>
      </trkpt>
      <trkpt lat="45.67965" lon="6.23706">
        <ele>1655.53</ele>
        <time>2017-10-14T08:57:06Z</time>
      </trkpt>
      <trkpt lat="45.67967" lon="6.23672">
        <ele>1669.47</ele>
        <time>2017-10-14T08:58:34Z</time>
      </trkpt>
      <trkpt lat="45.67975" lon="6.23645">
        <ele>1681</ele>
        <time>2017-10-14T08:59:58Z</time>
      </trkpt>
      <trkpt lat="45.68" lon="6.23646">
        <ele>1692.06</ele>
        <time>2017-10-14T09:01:03Z</time>
      </trkpt>
      <trkpt lat="45.68021" lon="6.23631">
        <ele>1704.07</ele>
        <time>2017-10-14T09:02:21Z</time>
      </trkpt>
      <trkpt lat="45.68042" lon="6.23619">
        <ele>1712.73</ele>
        <time>2017-10-14T09:03:14Z</time>
      </trkpt>
      <trkpt lat="45.68044" lon="6.23595">
        <ele>1722.82</ele>
        <time>2017-10-14T09:04:36Z</time>
      </trkpt>
      <trkpt lat="45.68027" lon="6.23577">
        <ele>1727.15</ele>
        <time>2017-10-14T09:06:04Z</time>
      </trkpt>
      <trkpt lat="45.68013" lon="6.23544">
        <ele>1725.22</ele>
        <time>2017-10-14T09:07:54Z</time>
      </trkpt>
      <trkpt lat="45.67991" lon="6.23515">
        <ele>1724.26</ele>
        <time>2017-10-14T09:08:48Z</time>
      </trkpt>
      <trkpt lat="45.67964" lon="6.23519">
        <ele>1728.59</ele>
        <time>2017-10-14T09:09:24Z</time>
      </trkpt>
      <trkpt lat="45.67944" lon="6.23498">
        <ele>1732.43</ele>
        <time>2017-10-14T09:09:58Z</time>
      </trkpt>
      <trkpt lat="45.67925" lon="6.23483">
        <ele>1737.72</ele>
        <time>2017-10-14T09:10:51Z</time>
      </trkpt>
      <trkpt lat="45.67906" lon="6.23463">
        <ele>1744.93</ele>
        <time>2017-10-14T09:11:34Z</time>
      </trkpt>
      <trkpt lat="45.67876" lon="6.2345">
        <ele>1747.81</ele>
        <time>2017-10-14T09:12:23Z</time>
      </trkpt>
      <trkpt lat="45.67852" lon="6.23441">
        <ele>1752.14</ele>
        <time>2017-10-14T09:13:29Z</time>
      </trkpt>
      <trkpt lat="45.67836" lon="6.23427">
        <ele>1751.18</ele>
        <time>2017-10-14T09:14:43Z</time>
      </trkpt>
      <trkpt lat="45.67813" lon="6.23423">
        <ele>1749.74</ele>
        <time>2017-10-14T09:16:21Z</time>
      </trkpt>
      <trkpt lat="45.6779" lon="6.23424">
        <ele>1751.18</ele>
        <time>2017-10-14T09:17:02Z</time>
      </trkpt>
      <trkpt lat="45.67771" lon="6.23418">
        <ele>1755.5</ele>
        <time>2017-10-14T09:18:37Z</time>
      </trkpt>
      <trkpt lat="45.67748" lon="6.23401">
        <ele>1756.47</ele>
        <time>2017-10-14T09:19:13Z</time>
      </trkpt>
      <trkpt lat="45.67733" lon="6.23376">
        <ele>1754.54</ele>
        <time>2017-10-14T09:19:46Z</time>
      </trkpt>
      <trkpt lat="45.67722" lon="6.2335">
        <ele>1756.47</ele>
        <time>2017-10-14T09:20:32Z</time>
      </trkpt>
      <trkpt lat="45.67726" lon="6.23318">
        <ele>1755.02</ele>
        <time>2017-10-14T09:22:29Z</time>
      </trkpt>
      <trkpt lat="45.67733" lon="6.23273">
        <ele>1754.54</ele>
        <time>2017-10-14T09:23:37Z</time>
      </trkpt>
      <trkpt lat="45.67729" lon="6.23236">
        <ele>1749.74</ele>
        <time>2017-10-14T09:24:05Z</time>
      </trkpt>
      <trkpt lat="45.67726" lon="6.23205">
        <ele>1742.05</ele>
        <time>2017-10-14T09:24:55Z</time>
      </trkpt>
      <trkpt lat="45.67713" lon="6.2318">
        <ele>1746.37</ele>
        <time>2017-10-14T09:25:44Z</time>
      </trkpt>
      <trkpt lat="45.67694" lon="6.23161">
        <ele>1754.54</ele>
        <time>2017-10-14T09:26:45Z</time>
      </trkpt>
      <trkpt lat="45.67676" lon="6.23147">
        <ele>1761.75</ele>
        <time>2017-10-14T09:27:53Z</time>
      </trkpt>
      <trkpt lat="45.67654" lon="6.23129">
        <ele>1767.04</ele>
        <time>2017-10-14T09:28:53Z</time>
      </trkpt>
      <trkpt lat="45.67634" lon="6.23115">
        <ele>1776.17</ele>
        <time>2017-10-14T09:29:48Z</time>
      </trkpt>
      <trkpt lat="45.67614" lon="6.23101">
        <ele>1783.86</ele>
        <time>2017-10-14T09:30:28Z</time>
      </trkpt>
      <trkpt lat="45.67591" lon="6.23074">
        <ele>1793</ele>
        <time>2017-10-14T09:31:24Z</time>
      </trkpt>
      <trkpt lat="45.67567" lon="6.23052">
        <ele>1801.65</ele>
        <time>2017-10-14T09:32:20Z</time>
      </trkpt>
      <trkpt lat="45.67543" lon="6.23037">
        <ele>1807.9</ele>
        <time>2017-10-14T09:33:12Z</time>
      </trkpt>
      <trkpt lat="45.67526" lon="6.23014">
        <ele>1819.43</ele>
        <time>2017-10-14T09:34:27Z</time>
      </trkpt>
      <trkpt lat="45.67515" lon="6.22984">
        <ele>1829.53</ele>
        <time>2017-10-14T09:35:39Z</time>
      </trkpt>
      <trkpt lat="45.67504" lon="6.22961">
        <ele>1840.1</ele>
        <time>2017-10-14T09:37:14Z</time>
      </trkpt>
      <trkpt lat="45.67491" lon="6.22946">
        <ele>1848.27</ele>
        <time>2017-10-14T09:38:17Z</time>
      </trkpt>
      <trkpt lat="45.67472" lon="6.22934">
        <ele>1857.4</ele>
        <time>2017-10-14T09:39:21Z</time>
      </trkpt>
      <trkpt lat="45.67448" lon="6.2292">
        <ele>1867.98</ele>
        <time>2017-10-14T09:40:25Z</time>
      </trkpt>
      <trkpt lat="45.67426" lon="6.22913">
        <ele>1870.86</ele>
        <time>2017-10-14T09:43:10Z</time>
      </trkpt>
      <trkpt lat="45.6741" lon="6.2289">
        <ele>1868.94</ele>
        <time>2017-10-14T09:43:36Z</time>
      </trkpt>
      <trkpt lat="45.674" lon="6.22855">
        <ele>1869.42</ele>
        <time>2017-10-14T09:44:06Z</time>
      </trkpt>
      <trkpt lat="45.67376" lon="6.22821">
        <ele>1870.86</ele>
        <time>2017-10-14T09:44:45Z</time>
      </trkpt>
      <trkpt lat="45.67353" lon="6.22811">
        <ele>1869.42</ele>
        <time>2017-10-14T09:45:12Z</time>
      </trkpt>
      <trkpt lat="45.67325" lon="6.228">
        <ele>1868.46</ele>
        <time>2017-10-14T09:45:42Z</time>
      </trkpt>
      <trkpt lat="45.67299" lon="6.22786">
        <ele>1871.34</ele>
        <time>2017-10-14T09:46:16Z</time>
      </trkpt>
      <trkpt lat="45.67287" lon="6.2277">
        <ele>1868.94</ele>
        <time>2017-10-14T09:47:31Z</time>
      </trkpt>
      <trkpt lat="45.67273" lon="6.22745">
        <ele>1865.09</ele>
        <time>2017-10-14T09:48:00Z</time>
      </trkpt>
      <trkpt lat="45.67261" lon="6.2271">
        <ele>1863.65</ele>
        <time>2017-10-14T09:48:31Z</time>
      </trkpt>
      <trkpt lat="45.67248" lon="6.22683">
        <ele>1863.65</ele>
        <time>2017-10-14T09:48:59Z</time>
      </trkpt>
      <trkpt lat="45.67237" lon="6.22652">
        <ele>1861.73</ele>
        <time>2017-10-14T09:49:28Z</time>
      </trkpt>
      <trkpt lat="45.67229" lon="6.22623">
        <ele>1860.77</ele>
        <time>2017-10-14T09:50:00Z</time>
      </trkpt>
      <trkpt lat="45.67216" lon="6.22596">
        <ele>1863.17</ele>
        <time>2017-10-14T09:50:38Z</time>
      </trkpt>
      <trkpt lat="45.67192" lon="6.22575">
        <ele>1858.37</ele>
        <time>2017-10-14T09:51:12Z</time>
      </trkpt>
      <trkpt lat="45.67163" lon="6.22566">
        <ele>1854.04</ele>
        <time>2017-10-14T09:51:50Z</time>
      </trkpt>
      <trkpt lat="45.6714" lon="6.22552">
        <ele>1849.71</ele>
        <time>2017-10-14T09:52:31Z</time>
      </trkpt>
      <trkpt lat="45.67119" lon="6.22536">
        <ele>1852.12</ele>
        <time>2017-10-14T09:53:19Z</time>
      </trkpt>
      <trkpt lat="45.671" lon="6.22511">
        <ele>1858.37</ele>
        <time>2017-10-14T09:54:18Z</time>
      </trkpt>
      <trkpt lat="45.67081" lon="6.22497">
        <ele>1871.34</ele>
        <time>2017-10-14T09:56:10Z</time>
      </trkpt>
      <trkpt lat="45.67063" lon="6.22475">
        <ele>1880.96</ele>
        <time>2017-10-14T09:57:16Z</time>
      </trkpt>
      <trkpt lat="45.67054" lon="6.22474">
        <ele>1881.92</ele>
        <time>2017-10-14T09:59:43Z</time>
      </trkpt>
      <trkpt lat="45.67055" lon="6.22472">
        <ele>1884.32</ele>
        <time>2017-10-14T10:04:13Z</time>
      </trkpt>
      <trkpt lat="45.67057" lon="6.2247">
        <ele>1884.32</ele>
        <time>2017-10-14T10:06:48Z</time>
      </trkpt>
      <trkpt lat="45.6703" lon="6.22465">
        <ele>1889.13</ele>
        <time>2017-10-14T10:07:33Z</time>
      </trkpt>
      <trkpt lat="45.67008" lon="6.22462">
        <ele>1894.42</ele>
        <time>2017-10-14T10:08:12Z</time>
      </trkpt>
      <trkpt lat="45.66982" lon="6.22467">
        <ele>1895.38</ele>
        <time>2017-10-14T10:08:49Z</time>
      </trkpt>
      <trkpt lat="45.66959" lon="6.2246">
        <ele>1901.63</ele>
        <time>2017-10-14T10:09:32Z</time>
      </trkpt>
      <trkpt lat="45.66935" lon="6.22454">
        <ele>1906.43</ele>
        <time>2017-10-14T10:10:09Z</time>
      </trkpt>
      <trkpt lat="45.66912" lon="6.22452">
        <ele>1910.76</ele>
        <time>2017-10-14T10:10:49Z</time>
      </trkpt>
      <trkpt lat="45.66884" lon="6.22456">
        <ele>1921.81</ele>
        <time>2017-10-14T10:12:06Z</time>
      </trkpt>
      <trkpt lat="45.66862" lon="6.22454">
        <ele>1930.95</ele>
        <time>2017-10-14T10:13:06Z</time>
      </trkpt>
      <trkpt lat="45.66842" lon="6.22465">
        <ele>1937.19</ele>
        <time>2017-10-14T10:14:38Z</time>
      </trkpt>
      <trkpt lat="45.66817" lon="6.22483">
        <ele>1947.77</ele>
        <time>2017-10-14T10:15:41Z</time>
      </trkpt>
      <trkpt lat="45.66802" lon="6.22456">
        <ele>1958.34</ele>
        <time>2017-10-14T10:16:50Z</time>
      </trkpt>
      <trkpt lat="45.66784" lon="6.22431">
        <ele>1967.48</ele>
        <time>2017-10-14T10:17:42Z</time>
      </trkpt>
      <trkpt lat="45.66765" lon="6.22406">
        <ele>1976.13</ele>
        <time>2017-10-14T10:18:36Z</time>
      </trkpt>
      <trkpt lat="45.66755" lon="6.22382">
        <ele>1984.3</ele>
        <time>2017-10-14T10:19:34Z</time>
      </trkpt>
      <trkpt lat="45.66752" lon="6.22396">
        <ele>1982.86</ele>
        <time>2017-10-14T10:20:23Z</time>
      </trkpt>
      <trkpt lat="45.66738" lon="6.2242">
        <ele>1991.99</ele>
        <time>2017-10-14T10:21:31Z</time>
      </trkpt>
      <trkpt lat="45.66723" lon="6.22432">
        <ele>2006.89</ele>
        <time>2017-10-14T10:22:53Z</time>
      </trkpt>
      <trkpt lat="45.66712" lon="6.22462">
        <ele>2023.23</ele>
        <time>2017-10-14T10:24:11Z</time>
      </trkpt>
      <trkpt lat="45.66701" lon="6.22494">
        <ele>2040.05</ele>
        <time>2017-10-14T10:25:38Z</time>
      </trkpt>
      <trkpt lat="45.667" lon="6.22528">
        <ele>2055.92</ele>
        <time>2017-10-14T10:27:08Z</time>
      </trkpt>
      <trkpt lat="45.66699" lon="6.22549">
        <ele>2064.09</ele>
        <time>2017-10-14T10:28:48Z</time>
      </trkpt>
      <trkpt lat="45.66701" lon="6.22546">
        <ele>2066.49</ele>
        <time>2017-10-14T11:02:43Z</time>
      </trkpt>
      <trkpt lat="45.66698" lon="6.22548">
        <ele>2068.89</ele>
        <time>2017-10-14T11:16:06Z</time>
      </trkpt>
      <trkpt lat="45.66699" lon="6.22545">
        <ele>2067.93</ele>
        <time>2017-10-14T11:37:06Z</time>
      </trkpt>
      <trkpt lat="45.66701" lon="6.22527">
        <ele>2059.28</ele>
        <time>2017-10-14T11:39:59Z</time>
      </trkpt>
      <trkpt lat="45.66704" lon="6.22491">
        <ele>2041.98</ele>
        <time>2017-10-14T11:41:59Z</time>
      </trkpt>
      <trkpt lat="45.66713" lon="6.22462">
        <ele>2026.12</ele>
        <time>2017-10-14T11:42:59Z</time>
      </trkpt>
      <trkpt lat="45.66724" lon="6.22431">
        <ele>2010.25</ele>
        <time>2017-10-14T11:44:05Z</time>
      </trkpt>
      <trkpt lat="45.66738" lon="6.22422">
        <ele>1997.28</ele>
        <time>2017-10-14T11:45:03Z</time>
      </trkpt>
      <trkpt lat="45.66751" lon="6.22397">
        <ele>1986.22</ele>
        <time>2017-10-14T11:46:41Z</time>
      </trkpt>
      <trkpt lat="45.66749" lon="6.2236">
        <ele>1986.22</ele>
        <time>2017-10-14T11:47:17Z</time>
      </trkpt>
      <trkpt lat="45.66763" lon="6.22314">
        <ele>1980.45</ele>
        <time>2017-10-14T11:47:53Z</time>
      </trkpt>
      <trkpt lat="45.66782" lon="6.22281">
        <ele>1976.61</ele>
        <time>2017-10-14T11:48:33Z</time>
      </trkpt>
      <trkpt lat="45.66801" lon="6.22272">
        <ele>1978.53</ele>
        <time>2017-10-14T11:49:31Z</time>
      </trkpt>
      <trkpt lat="45.66823" lon="6.22248">
        <ele>1977.57</ele>
        <time>2017-10-14T11:50:11Z</time>
      </trkpt>
      <trkpt lat="45.66829" lon="6.22219">
        <ele>1966.51</ele>
        <time>2017-10-14T11:51:19Z</time>
      </trkpt>
      <trkpt lat="45.66824" lon="6.22192">
        <ele>1952.09</ele>
        <time>2017-10-14T11:53:48Z</time>
      </trkpt>
      <trkpt lat="45.6683" lon="6.22162">
        <ele>1938.64</ele>
        <time>2017-10-14T11:55:35Z</time>
      </trkpt>
      <trkpt lat="45.66837" lon="6.22126">
        <ele>1926.14</ele>
        <time>2017-10-14T11:56:27Z</time>
      </trkpt>
      <trkpt lat="45.66844" lon="6.22093">
        <ele>1915.56</ele>
        <time>2017-10-14T11:57:07Z</time>
      </trkpt>
      <trkpt lat="45.66849" lon="6.22057">
        <ele>1906.43</ele>
        <time>2017-10-14T11:57:47Z</time>
      </trkpt>
      <trkpt lat="45.66852" lon="6.22018">
        <ele>1897.78</ele>
        <time>2017-10-14T11:58:29Z</time>
      </trkpt>
      <trkpt lat="45.6684" lon="6.21984">
        <ele>1882.88</ele>
        <time>2017-10-14T11:59:24Z</time>
      </trkpt>
      <trkpt lat="45.6684" lon="6.21948">
        <ele>1874.71</ele>
        <time>2017-10-14T12:00:00Z</time>
      </trkpt>
      <trkpt lat="45.6684" lon="6.21907">
        <ele>1862.69</ele>
        <time>2017-10-14T12:00:46Z</time>
      </trkpt>
      <trkpt lat="45.66839" lon="6.21871">
        <ele>1849.71</ele>
        <time>2017-10-14T12:01:30Z</time>
      </trkpt>
      <trkpt lat="45.66834" lon="6.21835">
        <ele>1834.81</ele>
        <time>2017-10-14T12:02:24Z</time>
      </trkpt>
      <trkpt lat="45.66847" lon="6.2179">
        <ele>1826.16</ele>
        <time>2017-10-14T12:03:32Z</time>
      </trkpt>
      <trkpt lat="45.66838" lon="6.21756">
        <ele>1817.51</ele>
        <time>2017-10-14T12:04:21Z</time>
      </trkpt>
      <trkpt lat="45.66837" lon="6.2172">
        <ele>1823.28</ele>
        <time>2017-10-14T12:05:08Z</time>
      </trkpt>
      <trkpt lat="45.6684" lon="6.21683">
        <ele>1834.33</ele>
        <time>2017-10-14T12:06:15Z</time>
      </trkpt>
      <trkpt lat="45.66844" lon="6.21649">
        <ele>1841.06</ele>
        <time>2017-10-14T12:07:09Z</time>
      </trkpt>
      <trkpt lat="45.66864" lon="6.21619">
        <ele>1836.26</ele>
        <time>2017-10-14T12:07:56Z</time>
      </trkpt>
      <trkpt lat="45.66875" lon="6.2159">
        <ele>1827.12</ele>
        <time>2017-10-14T12:08:40Z</time>
      </trkpt>
      <trkpt lat="45.66896" lon="6.21558">
        <ele>1820.87</ele>
        <time>2017-10-14T12:09:19Z</time>
      </trkpt>
      <trkpt lat="45.66913" lon="6.21538">
        <ele>1820.87</ele>
        <time>2017-10-14T12:09:49Z</time>
      </trkpt>
      <trkpt lat="45.66922" lon="6.21506">
        <ele>1817.99</ele>
        <time>2017-10-14T12:10:20Z</time>
      </trkpt>
      <trkpt lat="45.66922" lon="6.21468">
        <ele>1811.26</ele>
        <time>2017-10-14T12:10:59Z</time>
      </trkpt>
      <trkpt lat="45.66919" lon="6.21433">
        <ele>1796.36</ele>
        <time>2017-10-14T12:12:02Z</time>
      </trkpt>
      <trkpt lat="45.66908" lon="6.21402">
        <ele>1787.71</ele>
        <time>2017-10-14T12:12:43Z</time>
      </trkpt>
      <trkpt lat="45.66883" lon="6.21417">
        <ele>1778.58</ele>
        <time>2017-10-14T12:13:25Z</time>
      </trkpt>
      <trkpt lat="45.66858" lon="6.21443">
        <ele>1768.48</ele>
        <time>2017-10-14T12:14:08Z</time>
      </trkpt>
      <trkpt lat="45.66844" lon="6.21428">
        <ele>1758.39</ele>
        <time>2017-10-14T12:14:59Z</time>
      </trkpt>
      <trkpt lat="45.66817" lon="6.21412">
        <ele>1747.81</ele>
        <time>2017-10-14T12:15:53Z</time>
      </trkpt>
      <trkpt lat="45.66785" lon="6.2141">
        <ele>1738.2</ele>
        <time>2017-10-14T12:16:37Z</time>
      </trkpt>
      <trkpt lat="45.66762" lon="6.21408">
        <ele>1732.91</ele>
        <time>2017-10-14T12:17:05Z</time>
      </trkpt>
      <trkpt lat="45.66735" lon="6.21399">
        <ele>1729.07</ele>
        <time>2017-10-14T12:17:32Z</time>
      </trkpt>
      <trkpt lat="45.66712" lon="6.21381">
        <ele>1724.74</ele>
        <time>2017-10-14T12:18:40Z</time>
      </trkpt>
      <trkpt lat="45.66693" lon="6.21358">
        <ele>1718.97</ele>
        <time>2017-10-14T12:19:12Z</time>
      </trkpt>
      <trkpt lat="45.6667" lon="6.21318">
        <ele>1715.61</ele>
        <time>2017-10-14T12:19:47Z</time>
      </trkpt>
      <trkpt lat="45.66647" lon="6.21298">
        <ele>1713.69</ele>
        <time>2017-10-14T12:20:13Z</time>
      </trkpt>
      <trkpt lat="45.66625" lon="6.21281">
        <ele>1715.13</ele>
        <time>2017-10-14T12:20:41Z</time>
      </trkpt>
      <trkpt lat="45.66622" lon="6.21252">
        <ele>1719.46</ele>
        <time>2017-10-14T12:21:16Z</time>
      </trkpt>
      <trkpt lat="45.66593" lon="6.21232">
        <ele>1721.86</ele>
        <time>2017-10-14T12:22:03Z</time>
      </trkpt>
      <trkpt lat="45.66582" lon="6.212">
        <ele>1726.18</ele>
        <time>2017-10-14T12:22:40Z</time>
      </trkpt>
      <trkpt lat="45.66565" lon="6.2118">
        <ele>1724.26</ele>
        <time>2017-10-14T12:23:12Z</time>
      </trkpt>
      <trkpt lat="45.66542" lon="6.21169">
        <ele>1719.46</ele>
        <time>2017-10-14T12:23:46Z</time>
      </trkpt>
      <trkpt lat="45.66521" lon="6.21152">
        <ele>1718.97</ele>
        <time>2017-10-14T12:24:20Z</time>
      </trkpt>
      <trkpt lat="45.66504" lon="6.21127">
        <ele>1717.53</ele>
        <time>2017-10-14T12:24:47Z</time>
      </trkpt>
      <trkpt lat="45.66483" lon="6.21092">
        <ele>1715.61</ele>
        <time>2017-10-14T12:25:22Z</time>
      </trkpt>
      <trkpt lat="45.66476" lon="6.21085">
        <ele>1714.65</ele>
        <time>2017-10-14T12:30:44Z</time>
      </trkpt>
      <trkpt lat="45.66481" lon="6.21083">
        <ele>1714.17</ele>
        <time>2017-10-14T12:37:29Z</time>
      </trkpt>
      <trkpt lat="45.6648" lon="6.21079">
        <ele>1713.21</ele>
        <time>2017-10-14T12:43:53Z</time>
      </trkpt>
      <trkpt lat="45.66486" lon="6.2107">
        <ele>1712.73</ele>
        <time>2017-10-14T12:45:41Z</time>
      </trkpt>
      <trkpt lat="45.66491" lon="6.21066">
        <ele>1711.28</ele>
        <time>2017-10-14T12:47:22Z</time>
      </trkpt>
      <trkpt lat="45.66475" lon="6.21088">
        <ele>1713.21</ele>
        <time>2017-10-14T12:48:13Z</time>
      </trkpt>
      <trkpt lat="45.66477" lon="6.21087">
        <ele>1713.69</ele>
        <time>2017-10-14T12:50:26Z</time>
      </trkpt>
      <trkpt lat="45.66453" lon="6.21083">
        <ele>1710.8</ele>
        <time>2017-10-14T12:51:27Z</time>
      </trkpt>
      <trkpt lat="45.66431" lon="6.21089">
        <ele>1703.59</ele>
        <time>2017-10-14T12:52:15Z</time>
      </trkpt>
      <trkpt lat="45.66409" lon="6.21084">
        <ele>1697.34</ele>
        <time>2017-10-14T12:52:53Z</time>
      </trkpt>
      <trkpt lat="45.6639" lon="6.21056">
        <ele>1691.58</ele>
        <time>2017-10-14T12:53:25Z</time>
      </trkpt>
      <trkpt lat="45.66368" lon="6.21019">
        <ele>1683.41</ele>
        <time>2017-10-14T12:54:05Z</time>
      </trkpt>
      <trkpt lat="45.66354" lon="6.20987">
        <ele>1674.75</ele>
        <time>2017-10-14T12:54:48Z</time>
      </trkpt>
      <trkpt lat="45.66338" lon="6.20954">
        <ele>1665.14</ele>
        <time>2017-10-14T12:55:31Z</time>
      </trkpt>
      <trkpt lat="45.66323" lon="6.20923">
        <ele>1656.97</ele>
        <time>2017-10-14T12:56:16Z</time>
      </trkpt>
      <trkpt lat="45.66315" lon="6.20893">
        <ele>1651.2</ele>
        <time>2017-10-14T12:56:46Z</time>
      </trkpt>
      <trkpt lat="45.6629" lon="6.20873">
        <ele>1645.91</ele>
        <time>2017-10-14T12:57:23Z</time>
      </trkpt>
      <trkpt lat="45.66257" lon="6.20873">
        <ele>1639.19</ele>
        <time>2017-10-14T12:58:01Z</time>
      </trkpt>
      <trkpt lat="45.66226" lon="6.20863">
        <ele>1633.9</ele>
        <time>2017-10-14T12:58:34Z</time>
      </trkpt>
      <trkpt lat="45.66205" lon="6.20854">
        <ele>1629.57</ele>
        <time>2017-10-14T12:59:07Z</time>
      </trkpt>
      <trkpt lat="45.66172" lon="6.2083">
        <ele>1625.25</ele>
        <time>2017-10-14T12:59:52Z</time>
      </trkpt>
      <trkpt lat="45.66142" lon="6.20792">
        <ele>1619</ele>
        <time>2017-10-14T13:00:30Z</time>
      </trkpt>
      <trkpt lat="45.66112" lon="6.20772">
        <ele>1613.71</ele>
        <time>2017-10-14T13:01:03Z</time>
      </trkpt>
      <trkpt lat="45.66071" lon="6.20754">
        <ele>1608.42</ele>
        <time>2017-10-14T13:01:42Z</time>
      </trkpt>
      <trkpt lat="45.6606" lon="6.2071">
        <ele>1603.62</ele>
        <time>2017-10-14T13:02:18Z</time>
      </trkpt>
      <trkpt lat="45.66033" lon="6.20701">
        <ele>1597.85</ele>
        <time>2017-10-14T13:02:53Z</time>
      </trkpt>
      <trkpt lat="45.65999" lon="6.20723">
        <ele>1591.6</ele>
        <time>2017-10-14T13:03:33Z</time>
      </trkpt>
      <trkpt lat="45.65974" lon="6.20741">
        <ele>1585.35</ele>
        <time>2017-10-14T13:04:06Z</time>
      </trkpt>
      <trkpt lat="45.65945" lon="6.20758">
        <ele>1580.06</ele>
        <time>2017-10-14T13:04:40Z</time>
      </trkpt>
      <trkpt lat="45.6591" lon="6.20756">
        <ele>1576.22</ele>
        <time>2017-10-14T13:05:15Z</time>
      </trkpt>
      <trkpt lat="45.65875" lon="6.20731">
        <ele>1574.3</ele>
        <time>2017-10-14T13:05:51Z</time>
      </trkpt>
      <trkpt lat="45.65849" lon="6.2069">
        <ele>1573.82</ele>
        <time>2017-10-14T13:06:27Z</time>
      </trkpt>
      <trkpt lat="45.65832" lon="6.20659">
        <ele>1573.82</ele>
        <time>2017-10-14T13:06:54Z</time>
      </trkpt>
      <trkpt lat="45.6582" lon="6.20606">
        <ele>1574.78</ele>
        <time>2017-10-14T13:07:31Z</time>
      </trkpt>
      <trkpt lat="45.65808" lon="6.2057">
        <ele>1573.33</ele>
        <time>2017-10-14T13:07:56Z</time>
      </trkpt>
      <trkpt lat="45.65788" lon="6.20536">
        <ele>1572.85</ele>
        <time>2017-10-14T13:08:30Z</time>
      </trkpt>
      <trkpt lat="45.65773" lon="6.20506">
        <ele>1571.41</ele>
        <time>2017-10-14T13:09:00Z</time>
      </trkpt>
      <trkpt lat="45.65761" lon="6.20478">
        <ele>1569.97</ele>
        <time>2017-10-14T13:09:22Z</time>
      </trkpt>
      <trkpt lat="45.65746" lon="6.20451">
        <ele>1567.09</ele>
        <time>2017-10-14T13:09:46Z</time>
      </trkpt>
      <trkpt lat="45.65728" lon="6.20425">
        <ele>1565.16</ele>
        <time>2017-10-14T13:10:10Z</time>
      </trkpt>
      <trkpt lat="45.65706" lon="6.20393">
        <ele>1560.84</ele>
        <time>2017-10-14T13:10:42Z</time>
      </trkpt>
      <trkpt lat="45.65682" lon="6.20366">
        <ele>1558.92</ele>
        <time>2017-10-14T13:11:10Z</time>
      </trkpt>
      <trkpt lat="45.65664" lon="6.20323">
        <ele>1554.59</ele>
        <time>2017-10-14T13:11:44Z</time>
      </trkpt>
      <trkpt lat="45.65646" lon="6.20304">
        <ele>1551.71</ele>
        <time>2017-10-14T13:12:08Z</time>
      </trkpt>
      <trkpt lat="45.65624" lon="6.20298">
        <ele>1550.26</ele>
        <time>2017-10-14T13:13:05Z</time>
      </trkpt>
      <trkpt lat="45.65601" lon="6.2027">
        <ele>1547.38</ele>
        <time>2017-10-14T13:13:37Z</time>
      </trkpt>
      <trkpt lat="45.65588" lon="6.2023">
        <ele>1545.46</ele>
        <time>2017-10-14T13:14:06Z</time>
      </trkpt>
      <trkpt lat="45.65565" lon="6.20227">
        <ele>1543.05</ele>
        <time>2017-10-14T13:14:28Z</time>
      </trkpt>
      <trkpt lat="45.65537" lon="6.2021">
        <ele>1542.57</ele>
        <time>2017-10-14T13:14:57Z</time>
      </trkpt>
      <trkpt lat="45.65503" lon="6.20205">
        <ele>1540.17</ele>
        <time>2017-10-14T13:15:27Z</time>
      </trkpt>
      <trkpt lat="45.65464" lon="6.20215">
        <ele>1536.32</ele>
        <time>2017-10-14T13:16:05Z</time>
      </trkpt>
      <trkpt lat="45.65469" lon="6.20179">
        <ele>1530.56</ele>
        <time>2017-10-14T13:17:16Z</time>
      </trkpt>
      <trkpt lat="45.65486" lon="6.20158">
        <ele>1526.71</ele>
        <time>2017-10-14T13:17:38Z</time>
      </trkpt>
      <trkpt lat="45.65524" lon="6.20137">
        <ele>1521.9</ele>
        <time>2017-10-14T13:18:15Z</time>
      </trkpt>
      <trkpt lat="45.6555" lon="6.20126">
        <ele>1519.5</ele>
        <time>2017-10-14T13:18:39Z</time>
      </trkpt>
      <trkpt lat="45.65562" lon="6.20098">
        <ele>1516.62</ele>
        <time>2017-10-14T13:19:01Z</time>
      </trkpt>
      <trkpt lat="45.65591" lon="6.20082">
        <ele>1513.73</ele>
        <time>2017-10-14T13:19:34Z</time>
      </trkpt>
      <trkpt lat="45.65618" lon="6.20076">
        <ele>1509.41</ele>
        <time>2017-10-14T13:20:09Z</time>
      </trkpt>
      <trkpt lat="45.65643" lon="6.20087">
        <ele>1505.56</ele>
        <time>2017-10-14T13:20:44Z</time>
      </trkpt>
      <trkpt lat="45.65678" lon="6.2008">
        <ele>1500.76</ele>
        <time>2017-10-14T13:21:27Z</time>
      </trkpt>
      <trkpt lat="45.65706" lon="6.20078">
        <ele>1496.43</ele>
        <time>2017-10-14T13:21:57Z</time>
      </trkpt>
      <trkpt lat="45.65734" lon="6.20084">
        <ele>1492.1</ele>
        <time>2017-10-14T13:22:34Z</time>
      </trkpt>
      <trkpt lat="45.6576" lon="6.20086">
        <ele>1488.26</ele>
        <time>2017-10-14T13:23:04Z</time>
      </trkpt>
      <trkpt lat="45.65784" lon="6.20091">
        <ele>1484.89</ele>
        <time>2017-10-14T13:23:33Z</time>
      </trkpt>
      <trkpt lat="45.65811" lon="6.20095">
        <ele>1480.57</ele>
        <time>2017-10-14T13:24:06Z</time>
      </trkpt>
      <trkpt lat="45.65837" lon="6.20093">
        <ele>1477.68</ele>
        <time>2017-10-14T13:24:36Z</time>
      </trkpt>
      <trkpt lat="45.65861" lon="6.201">
        <ele>1474.32</ele>
        <time>2017-10-14T13:25:04Z</time>
      </trkpt>
      <trkpt lat="45.65895" lon="6.20103">
        <ele>1468.55</ele>
        <time>2017-10-14T13:25:47Z</time>
      </trkpt>
      <trkpt lat="45.65922" lon="6.20109">
        <ele>1466.15</ele>
        <time>2017-10-14T13:26:15Z</time>
      </trkpt>
      <trkpt lat="45.65904" lon="6.20087">
        <ele>1459.9</ele>
        <time>2017-10-14T13:27:00Z</time>
      </trkpt>
      <trkpt lat="45.65882" lon="6.20076">
        <ele>1455.57</ele>
        <time>2017-10-14T13:27:29Z</time>
      </trkpt>
      <trkpt lat="45.65856" lon="6.20051">
        <ele>1449.32</ele>
        <time>2017-10-14T13:28:11Z</time>
      </trkpt>
      <trkpt lat="45.6584" lon="6.20022">
        <ele>1444.52</ele>
        <time>2017-10-14T13:28:46Z</time>
      </trkpt>
      <trkpt lat="45.65869" lon="6.20033">
        <ele>1439.23</ele>
        <time>2017-10-14T13:29:35Z</time>
      </trkpt>
      <trkpt lat="45.65875" lon="6.20009">
        <ele>1433.46</ele>
        <time>2017-10-14T13:30:20Z</time>
      </trkpt>
      <trkpt lat="45.65852" lon="6.19976">
        <ele>1427.21</ele>
        <time>2017-10-14T13:31:05Z</time>
      </trkpt>
      <trkpt lat="45.65833" lon="6.19962">
        <ele>1424.33</ele>
        <time>2017-10-14T13:31:29Z</time>
      </trkpt>
      <trkpt lat="45.65802" lon="6.19953">
        <ele>1420</ele>
        <time>2017-10-14T13:32:03Z</time>
      </trkpt>
      <trkpt lat="45.65774" lon="6.1992">
        <ele>1415.2</ele>
        <time>2017-10-14T13:32:41Z</time>
      </trkpt>
      <trkpt lat="45.65746" lon="6.19913">
        <ele>1412.31</ele>
        <time>2017-10-14T13:33:09Z</time>
      </trkpt>
      <trkpt lat="45.65718" lon="6.19911">
        <ele>1409.43</ele>
        <time>2017-10-14T13:33:36Z</time>
      </trkpt>
      <trkpt lat="45.65746" lon="6.1991">
        <ele>1402.7</ele>
        <time>2017-10-14T13:34:32Z</time>
      </trkpt>
      <trkpt lat="45.65775" lon="6.19906">
        <ele>1397.89</ele>
        <time>2017-10-14T13:35:05Z</time>
      </trkpt>
      <trkpt lat="45.65802" lon="6.19906">
        <ele>1394.53</ele>
        <time>2017-10-14T13:35:35Z</time>
      </trkpt>
      <trkpt lat="45.65828" lon="6.199">
        <ele>1390.68</ele>
        <time>2017-10-14T13:36:05Z</time>
      </trkpt>
      <trkpt lat="45.65854" lon="6.199">
        <ele>1386.36</ele>
        <time>2017-10-14T13:36:34Z</time>
      </trkpt>
      <trkpt lat="45.65877" lon="6.19904">
        <ele>1382.51</ele>
        <time>2017-10-14T13:37:01Z</time>
      </trkpt>
      <trkpt lat="45.659" lon="6.19923">
        <ele>1379.63</ele>
        <time>2017-10-14T13:37:27Z</time>
      </trkpt>
      <trkpt lat="45.65928" lon="6.19934">
        <ele>1375.3</ele>
        <time>2017-10-14T13:37:58Z</time>
      </trkpt>
      <trkpt lat="45.65953" lon="6.19949">
        <ele>1370.98</ele>
        <time>2017-10-14T13:38:28Z</time>
      </trkpt>
      <trkpt lat="45.65985" lon="6.19964">
        <ele>1366.65</ele>
        <time>2017-10-14T13:39:07Z</time>
      </trkpt>
      <trkpt lat="45.66011" lon="6.19987">
        <ele>1361.36</ele>
        <time>2017-10-14T13:39:40Z</time>
      </trkpt>
      <trkpt lat="45.66031" lon="6.20001">
        <ele>1356.56</ele>
        <time>2017-10-14T13:40:05Z</time>
      </trkpt>
      <trkpt lat="45.66054" lon="6.20008">
        <ele>1351.27</ele>
        <time>2017-10-14T13:40:38Z</time>
      </trkpt>
      <trkpt lat="45.66079" lon="6.20029">
        <ele>1346.94</ele>
        <time>2017-10-14T13:41:17Z</time>
      </trkpt>
      <trkpt lat="45.66091" lon="6.20022">
        <ele>1342.14</ele>
        <time>2017-10-14T13:42:23Z</time>
      </trkpt>
      <trkpt lat="45.66066" lon="6.19986">
        <ele>1337.33</ele>
        <time>2017-10-14T13:42:58Z</time>
      </trkpt>
      <trkpt lat="45.6605" lon="6.1996">
        <ele>1333.49</ele>
        <time>2017-10-14T13:43:25Z</time>
      </trkpt>
      <trkpt lat="45.66033" lon="6.19917">
        <ele>1326.76</ele>
        <time>2017-10-14T13:44:01Z</time>
      </trkpt>
      <trkpt lat="45.66016" lon="6.19883">
        <ele>1320.99</ele>
        <time>2017-10-14T13:44:34Z</time>
      </trkpt>
      <trkpt lat="45.65998" lon="6.19854">
        <ele>1316.18</ele>
        <time>2017-10-14T13:45:04Z</time>
      </trkpt>
      <trkpt lat="45.65983" lon="6.19823">
        <ele>1311.86</ele>
        <time>2017-10-14T13:45:32Z</time>
      </trkpt>
      <trkpt lat="45.65959" lon="6.19787">
        <ele>1306.09</ele>
        <time>2017-10-14T13:46:09Z</time>
      </trkpt>
      <trkpt lat="45.6595" lon="6.19749">
        <ele>1302.24</ele>
        <time>2017-10-14T13:46:39Z</time>
      </trkpt>
      <trkpt lat="45.65928" lon="6.19724">
        <ele>1297.92</ele>
        <time>2017-10-14T13:47:07Z</time>
      </trkpt>
      <trkpt lat="45.65907" lon="6.19694">
        <ele>1292.63</ele>
        <time>2017-10-14T13:47:38Z</time>
      </trkpt>
      <trkpt lat="45.65884" lon="6.19669">
        <ele>1288.78</ele>
        <time>2017-10-14T13:48:07Z</time>
      </trkpt>
      <trkpt lat="45.65864" lon="6.19649">
        <ele>1283.98</ele>
        <time>2017-10-14T13:48:35Z</time>
      </trkpt>
      <trkpt lat="45.65831" lon="6.19631">
        <ele>1277.73</ele>
        <time>2017-10-14T13:49:13Z</time>
      </trkpt>
      <trkpt lat="45.65806" lon="6.19617">
        <ele>1273.88</ele>
        <time>2017-10-14T13:49:44Z</time>
      </trkpt>
      <trkpt lat="45.65785" lon="6.19609">
        <ele>1270.52</ele>
        <time>2017-10-14T13:50:07Z</time>
      </trkpt>
      <trkpt lat="45.65808" lon="6.19609">
        <ele>1264.27</ele>
        <time>2017-10-14T13:50:53Z</time>
      </trkpt>
      <trkpt lat="45.65836" lon="6.19604">
        <ele>1259.46</ele>
        <time>2017-10-14T13:51:24Z</time>
      </trkpt>
      <trkpt lat="45.65863" lon="6.19606">
        <ele>1255.14</ele>
        <time>2017-10-14T13:51:54Z</time>
      </trkpt>
      <trkpt lat="45.65887" lon="6.19618">
        <ele>1248.89</ele>
        <time>2017-10-14T13:52:26Z</time>
      </trkpt>
      <trkpt lat="45.65914" lon="6.19632">
        <ele>1243.6</ele>
        <time>2017-10-14T13:53:00Z</time>
      </trkpt>
      <trkpt lat="45.65946" lon="6.19646">
        <ele>1236.39</ele>
        <time>2017-10-14T13:53:37Z</time>
      </trkpt>
      <trkpt lat="45.65973" lon="6.19661">
        <ele>1231.59</ele>
        <time>2017-10-14T13:54:10Z</time>
      </trkpt>
      <trkpt lat="45.65997" lon="6.19674">
        <ele>1227.26</ele>
        <time>2017-10-14T13:54:40Z</time>
      </trkpt>
      <trkpt lat="45.66024" lon="6.19686">
        <ele>1221.97</ele>
        <time>2017-10-14T13:55:12Z</time>
      </trkpt>
      <trkpt lat="45.66047" lon="6.19707">
        <ele>1216.69</ele>
        <time>2017-10-14T13:55:41Z</time>
      </trkpt>
      <trkpt lat="45.66069" lon="6.19703">
        <ele>1211.88</ele>
        <time>2017-10-14T13:56:11Z</time>
      </trkpt>
      <trkpt lat="45.66082" lon="6.19684">
        <ele>1207.07</ele>
        <time>2017-10-14T13:57:07Z</time>
      </trkpt>
      <trkpt lat="45.66085" lon="6.19683">
        <ele>1207.07</ele>
        <time>2017-10-14T13:58:48Z</time>
      </trkpt>
      <trkpt lat="45.66083" lon="6.19687">
        <ele>1205.63</ele>
        <time>2017-10-14T14:00:24Z</time>
      </trkpt>
      <trkpt lat="45.66115" lon="6.19712">
        <ele>1201.79</ele>
        <time>2017-10-14T14:00:58Z</time>
      </trkpt>
      <trkpt lat="45.6614" lon="6.19716">
        <ele>1199.86</ele>
        <time>2017-10-14T14:01:20Z</time>
      </trkpt>
      <trkpt lat="45.66167" lon="6.19735">
        <ele>1196.02</ele>
        <time>2017-10-14T14:01:51Z</time>
      </trkpt>
      <trkpt lat="45.66188" lon="6.19764">
        <ele>1192.65</ele>
        <time>2017-10-14T14:02:18Z</time>
      </trkpt>
      <trkpt lat="45.66206" lon="6.19793">
        <ele>1189.77</ele>
        <time>2017-10-14T14:02:41Z</time>
      </trkpt>
      <trkpt lat="45.66205" lon="6.1975">
        <ele>1184.96</ele>
        <time>2017-10-14T14:03:18Z</time>
      </trkpt>
      <trkpt lat="45.66196" lon="6.19711">
        <ele>1182.56</ele>
        <time>2017-10-14T14:03:44Z</time>
      </trkpt>
      <trkpt lat="45.66185" lon="6.19679">
        <ele>1179.67</ele>
        <time>2017-10-14T14:04:07Z</time>
      </trkpt>
      <trkpt lat="45.66173" lon="6.19625">
        <ele>1175.83</ele>
        <time>2017-10-14T14:04:42Z</time>
      </trkpt>
      <trkpt lat="45.66173" lon="6.19588">
        <ele>1174.87</ele>
        <time>2017-10-14T14:05:05Z</time>
      </trkpt>
      <trkpt lat="45.6615" lon="6.19571">
        <ele>1170.54</ele>
        <time>2017-10-14T14:05:34Z</time>
      </trkpt>
      <trkpt lat="45.66121" lon="6.19576">
        <ele>1167.18</ele>
        <time>2017-10-14T14:06:03Z</time>
      </trkpt>
      <trkpt lat="45.66094" lon="6.19552">
        <ele>1162.85</ele>
        <time>2017-10-14T14:06:35Z</time>
      </trkpt>
      <trkpt lat="45.66073" lon="6.19511">
        <ele>1156.12</ele>
        <time>2017-10-14T14:07:16Z</time>
      </trkpt>
      <trkpt lat="45.66055" lon="6.19484">
        <ele>1151.8</ele>
        <time>2017-10-14T14:07:45Z</time>
      </trkpt>
      <trkpt lat="45.6604" lon="6.19445">
        <ele>1146.03</ele>
        <time>2017-10-14T14:08:20Z</time>
      </trkpt>
      <trkpt lat="45.6603" lon="6.19408">
        <ele>1141.7</ele>
        <time>2017-10-14T14:08:48Z</time>
      </trkpt>
      <trkpt lat="45.66024" lon="6.19371">
        <ele>1137.86</ele>
        <time>2017-10-14T14:09:15Z</time>
      </trkpt>
      <trkpt lat="45.66037" lon="6.19331">
        <ele>1133.05</ele>
        <time>2017-10-14T14:09:52Z</time>
      </trkpt>
      <trkpt lat="45.6605" lon="6.19287">
        <ele>1128.73</ele>
        <time>2017-10-14T14:10:22Z</time>
      </trkpt>
      <trkpt lat="45.66061" lon="6.19243">
        <ele>1124.4</ele>
        <time>2017-10-14T14:10:55Z</time>
      </trkpt>
      <trkpt lat="45.66067" lon="6.19198">
        <ele>1119.11</ele>
        <time>2017-10-14T14:11:29Z</time>
      </trkpt>
      <trkpt lat="45.66052" lon="6.19163">
        <ele>1114.31</ele>
        <time>2017-10-14T14:11:59Z</time>
      </trkpt>
      <trkpt lat="45.66021" lon="6.19155">
        <ele>1109.5</ele>
        <time>2017-10-14T14:12:34Z</time>
      </trkpt>
      <trkpt lat="45.6599" lon="6.19139">
        <ele>1103.73</ele>
        <time>2017-10-14T14:13:11Z</time>
      </trkpt>
      <trkpt lat="45.65966" lon="6.19126">
        <ele>1099.89</ele>
        <time>2017-10-14T14:13:39Z</time>
      </trkpt>
      <trkpt lat="45.65964" lon="6.19114">
        <ele>1095.08</ele>
        <time>2017-10-14T14:14:23Z</time>
      </trkpt>
      <trkpt lat="45.65988" lon="6.19116">
        <ele>1091.23</ele>
        <time>2017-10-14T14:14:52Z</time>
      </trkpt>
      <trkpt lat="45.66012" lon="6.19104">
        <ele>1089.31</ele>
        <time>2017-10-14T14:15:19Z</time>
      </trkpt>
      <trkpt lat="45.66031" lon="6.19086">
        <ele>1087.39</ele>
        <time>2017-10-14T14:15:41Z</time>
      </trkpt>
      <trkpt lat="45.66055" lon="6.19072">
        <ele>1085.95</ele>
        <time>2017-10-14T14:16:03Z</time>
      </trkpt>
      <trkpt lat="45.66085" lon="6.19083">
        <ele>1082.58</ele>
        <time>2017-10-14T14:16:29Z</time>
      </trkpt>
      <trkpt lat="45.66111" lon="6.19111">
        <ele>1080.18</ele>
        <time>2017-10-14T14:17:01Z</time>
      </trkpt>
      <trkpt lat="45.66137" lon="6.1914">
        <ele>1076.33</ele>
        <time>2017-10-14T14:17:31Z</time>
      </trkpt>
      <trkpt lat="45.66146" lon="6.19173">
        <ele>1073.45</ele>
        <time>2017-10-14T14:17:57Z</time>
      </trkpt>
      <trkpt lat="45.66156" lon="6.19203">
        <ele>1069.6</ele>
        <time>2017-10-14T14:18:28Z</time>
      </trkpt>
      <trkpt lat="45.66179" lon="6.19211">
        <ele>1066.72</ele>
        <time>2017-10-14T14:18:58Z</time>
      </trkpt>
      <trkpt lat="45.662" lon="6.19227">
        <ele>1062.87</ele>
        <time>2017-10-14T14:19:27Z</time>
      </trkpt>
      <trkpt lat="45.66227" lon="6.19247">
        <ele>1059.51</ele>
        <time>2017-10-14T14:19:57Z</time>
      </trkpt>
      <trkpt lat="45.66242" lon="6.19271">
        <ele>1056.63</ele>
        <time>2017-10-14T14:20:22Z</time>
      </trkpt>
      <trkpt lat="45.66263" lon="6.19298">
        <ele>1054.22</ele>
        <time>2017-10-14T14:20:50Z</time>
      </trkpt>
      <trkpt lat="45.66295" lon="6.19302">
        <ele>1053.74</ele>
        <time>2017-10-14T14:21:21Z</time>
      </trkpt>
      <trkpt lat="45.66315" lon="6.19322">
        <ele>1052.3</ele>
        <time>2017-10-14T14:21:40Z</time>
      </trkpt>
      <trkpt lat="45.66339" lon="6.19341">
        <ele>1050.86</ele>
        <time>2017-10-14T14:22:09Z</time>
      </trkpt>
      <trkpt lat="45.66368" lon="6.19356">
        <ele>1047.49</ele>
        <time>2017-10-14T14:23:02Z</time>
      </trkpt>
      <trkpt lat="45.66399" lon="6.19357">
        <ele>1044.13</ele>
        <time>2017-10-14T14:23:35Z</time>
      </trkpt>
      <trkpt lat="45.66441" lon="6.19347">
        <ele>1039.32</ele>
        <time>2017-10-14T14:24:29Z</time>
      </trkpt>
      <trkpt lat="45.66468" lon="6.1933">
        <ele>1034.04</ele>
        <time>2017-10-14T14:25:01Z</time>
      </trkpt>
      <trkpt lat="45.66473" lon="6.19291">
        <ele>1028.27</ele>
        <time>2017-10-14T14:25:31Z</time>
      </trkpt>
      <trkpt lat="45.66473" lon="6.19259">
        <ele>1022.98</ele>
        <time>2017-10-14T14:25:52Z</time>
      </trkpt>
      <trkpt lat="45.66466" lon="6.19222">
        <ele>1017.69</ele>
        <time>2017-10-14T14:26:17Z</time>
      </trkpt>
      <trkpt lat="45.66483" lon="6.19187">
        <ele>1010.96</ele>
        <time>2017-10-14T14:26:50Z</time>
      </trkpt>
      <trkpt lat="45.66492" lon="6.19156">
        <ele>1008.56</ele>
        <time>2017-10-14T14:27:10Z</time>
      </trkpt>
      <trkpt lat="45.66488" lon="6.19149">
        <ele>1002.79</ele>
        <time>2017-10-14T14:31:29Z</time>
      </trkpt>
    </trkseg>
  </trk>
</gpx>